• Join FlightAware (Why Join?)
  • Login
  • US Flag 
05:17AM EDT


 

Airport Tracker/Info


-or-


 

Live Flight TrackerFlight Track Log ✈ SWA1197 ✈ 15-May-2013 ✈ KSAT - KBWI

Flight Track Log - Related Links

Times and Time Zones

All times are in EDT time to prevent confusion due to time zone crossing. See the SWA1197 flight status page for this flight to view local times or setup timezone preferences in your user account.

Time Position Orientation Groundspeed Altitude Reporting Facility
EDT Latitude Longitude Course Direction KTS MPH feet Rate Location/Type
07:28PM 29.5097 -98.4367 123° Southeast 159 183 2,700  Level Houston Center
07:29PM 29.5031 -98.4211 116° Southeast 167 192 3,300 2,220 Climbing Houston Center
07:30PM 29.5192 -98.3408 77° East 247 284 5,800 2,700 Climbing Houston Center
07:31PM 29.5425 -98.2497 74° East 299 344 9,000 3,180 Climbing Houston Center
07:32PM 29.5711 -98.1397 73° East 334 384 12,400 3,240 Climbing Houston Center
07:33PM 29.5997 -98.0303 73° East 355 409 15,700 3,240 Climbing Houston Center
07:34PM 29.6331 -97.9025 73° East 387 445 19,100 2,880 Climbing Houston Center
07:35PM 29.6561 -97.7811 78° East 401 461 21,700 1,860 Climbing Houston Center
07:36PM 29.6558 -97.6433 90° East 425 489 23,000 1,260 Climbing Houston Center
07:37PM 29.6564 -97.5017 90° East 437 503 24,400 1,500 Climbing Houston Center
07:38PM 29.6644 -97.3497 86° East 470 541 26,200 1,800 Climbing Houston Center
07:39PM 29.6764 -97.1889 85° East 498 573 28,200 1,920 Climbing Houston Center
07:40PM 29.6881 -97.0261 85° East 505 581 30,200 1,980 Climbing Houston Center
07:41PM 29.7225 -96.8319 78° East 527 606 32,400 1,740 Climbing Houston Center
07:42PM 29.8275 -96.7172 43° Northeast 523 602 33,800 1,500 Climbing Houston Center
07:43PM 29.9303 -96.6022 44° Northeast 515 593 35,500 1,440 Climbing Houston Center
07:44PM 30.0331 -96.4861 44° Northeast 516 594 36,800 1,200 Climbing Houston Center
07:45PM 30.1358 -96.3731 44° Northeast 520 598 38,000 1,260 Climbing Houston Center
07:46PM 30.2594 -96.2361 44° Northeast 523 602 39,500 1,200 Climbing Houston Center
07:47PM 30.3650 -96.1189 44° Northeast 522 601 40,500 720 Climbing Houston Center
07:48PM 30.4633 -96.0078 44° Northeast 515 593 41,000 240 Climbing Houston Center
07:49PM 30.5678 -95.8928 43° Northeast 515 593 41,000  Level Houston Center
07:50PM 30.6836 -95.7619 44° Northeast 516 594 41,000  Level Houston Center
07:51PM 30.7872 -95.6481 43° Northeast 512 589 41,000  Level Houston Center
07:52PM 30.8881 -95.5300 45° Northeast 509 586 41,000  Level Houston Center
07:53PM 30.9906 -95.4158 44° Northeast 508 585 41,000  Level Houston Center
07:54PM 31.0922 -95.3003 44° Northeast 507 583 41,000  Level Houston Center
07:55PM 31.2142 -95.1642 44° Northeast 504 580 41,000  Level Fort Worth Center
07:56PM 31.2953 -95.0700 45° Northeast 503 579 41,000  Level Houston Center
07:57PM 31.3989 -94.9539 44° Northeast 504 580 41,000  Level Houston Center
07:58PM 31.5083 -94.8306 44° Northeast 502 578 41,000  Level Fort Worth Center
07:59PM 31.6061 -94.7131 46° Northeast 502 578 41,000  Level Fort Worth Center
08:00PM 31.7039 -94.5956 46° Northeast 497 572 41,000  Level Fort Worth Center
08:01PM 31.8056 -94.4800 44° Northeast 497 572 41,000  Level Fort Worth Center
08:02PM 31.9031 -94.3644 45° Northeast 502 578 41,000  Level Fort Worth Center
08:03PM 32.0044 -94.2483 44° Northeast 502 578 41,000  Level Fort Worth Center
08:04PM 32.1039 -94.1294 45° Northeast 502 578 41,000  Level Fort Worth Center
08:05PM 32.2008 -94.0106 46° Northeast 502 578 41,000  Level Fort Worth Center
08:06PM 32.3000 -93.8939 45° Northeast 502 578 41,000  Level Fort Worth Center
08:07PM 32.3989 -93.7744 46° Northeast 502 578 41,000  Level Fort Worth Center
08:08PM 32.4975 -93.6547 46° Northeast 502 578 41,000  Level Fort Worth Center
08:09PM 32.5983 -93.5347 45° Northeast 502 578 41,000  Level Fort Worth Center
08:10PM 32.6989 -93.4144 45° Northeast 502 578 41,000  Level Fort Worth Center
08:11PM 32.7994 -93.2961 45° Northeast 502 578 41,000  Level Fort Worth Center
08:12PM 32.8997 -93.1778 45° Northeast 502 578 41,000  Level Fort Worth Center
08:13PM 32.9958 -93.0567 47° Northeast 502 578 41,000  Level Fort Worth Center
08:14PM 33.0939 -92.9356 46° Northeast 502 578 41,000  Level Fort Worth Center
08:15PM 33.1939 -92.8164 45° Northeast 502 578 41,000  Level Fort Worth Center
08:16PM 33.2811 -92.6875 51° Northeast 496 571 41,000  Level Fort Worth Center
08:20PM 33.4906 -92.1108 66° East 500 575 41,000  Level Memphis Center
08:21PM 33.5447 -91.9572 67° East 500 575 41,000  Level Memphis Center
08:22PM 33.6031 -91.8039 65° Northeast 495 570 41,000  Level Memphis Center
08:23PM 33.6525 -91.6525 69° East 495 570 41,000  Level Memphis Center
08:24PM 33.7083 -91.4983 66° East 495 570 41,000  Level Memphis Center
08:25PM 33.7639 -91.3442 67° East 495 570 41,000  Level Memphis Center
08:26PM 33.8172 -91.1897 67° East 495 570 41,000  Level Memphis Center
08:27PM 33.8703 -91.0353 67° East 495 570 41,000  Level Memphis Center
08:28PM 33.9253 -90.8803 67° East 495 570 41,000  Level Memphis Center
08:29PM 33.9822 -90.7103 68° East 495 570 41,000  Level Memphis Center
08:30PM 34.0369 -90.5578 67° East 495 570 41,000  Level Memphis Center
08:31PM 34.0892 -90.4097 67° East 490 564 41,000  Level Memphis Center
08:32PM 34.1392 -90.2567 68° East 490 564 41,000  Level Memphis Center
08:33PM 34.1953 -90.1111 65° Northeast 485 558 41,000  Level Memphis Center
08:34PM 34.2514 -89.9575 66° East 485 558 41,000  Level Memphis Center
08:35PM 34.3050 -89.8064 67° East 485 558 41,000  Level Memphis Center
08:36PM 34.3647 -89.6603 64° Northeast 480 552 41,000  Level Memphis Center
08:37PM 34.4306 -89.5136 61° Northeast 491 565 41,000  Level Memphis Center
08:38PM 34.4983 -89.3642 61° Northeast 496 571 41,000  Level Memphis Center
08:39PM 34.5661 -89.2172 61° Northeast 496 571 41,000  Level Memphis Center
08:40PM 34.6314 -89.0725 61° Northeast 490 564 41,000  Level Memphis Center
08:41PM 34.6964 -88.9247 62° Northeast 490 564 41,000  Level Memphis Center
08:42PM 34.7614 -88.7797 61° Northeast 485 558 41,000  Level Memphis Center
08:43PM 34.8264 -88.6317 62° Northeast 480 552 41,000  Level Memphis Center
08:44PM 34.8828 -88.5064 61° Northeast 480 552 41,000  Level Memphis Center
08:45PM 34.9475 -88.3683 60° Northeast 470 541 41,000  Level Memphis Center
08:46PM 35.0097 -88.2247 62° Northeast 470 541 41,000  Level Memphis Center
08:47PM 35.0697 -88.0761 64° Northeast 485 558 41,000  Level Memphis Center
08:48PM 35.1317 -87.9322 62° Northeast 476 548 41,000  Level Memphis Center
08:49PM 35.1978 -87.7906 60° Northeast 471 542 41,000  Level Memphis Center
08:50PM 35.2594 -87.6489 62° Northeast 471 542 41,000  Level Memphis Center
08:51PM 35.3208 -87.5044 62° Northeast 471 542 41,000  Level Memphis Center
08:52PM 35.3819 -87.3572 63° Northeast 481 554 41,000  Level Memphis Center
08:53PM 35.4389 -87.2125 64° Northeast 473 544 41,000  Level Memphis Center
08:54PM 35.4997 -87.0672 63° Northeast 473 544 41,000  Level Memphis Center
08:55PM 35.5644 -86.9192 62° Northeast 480 552 41,000  Level Memphis Center
08:56PM 35.6250 -86.7686 64° Northeast 480 552 41,000  Level Memphis Center
08:57PM 35.6853 -86.6228 63° Northeast 480 552 41,000  Level Memphis Center
08:58PM 35.7453 -86.4717 64° Northeast 480 552 41,000  Level Memphis Center
08:59PM 35.8094 -86.3253 62° Northeast 480 552 41,000  Level Memphis Center
09:00PM 35.8672 -86.1792 64° Northeast 480 552 41,000  Level Memphis Center
09:01PM 35.9267 -86.0300 64° Northeast 480 552 41,000  Level Memphis Center
09:03PM 36.0569 -85.7186 63° Northeast 470 541 41,000  Level Indianapolis Center
09:04PM 36.1164 -85.5733 63° Northeast 470 541 41,000  Level Indianapolis Center
09:05PM 36.1744 -85.4256 64° Northeast 474 545 41,000  Level Indianapolis Center
09:06PM 36.2336 -85.2783 63° Northeast 474 545 41,000  Level Indianapolis Center
09:07PM 36.2925 -85.1292 64° Northeast 476 548 41,000  Level Indianapolis Center
09:08PM 36.3514 -84.9800 64° Northeast 478 550 41,000  Level Indianapolis Center
09:10PM 36.4103 -84.8328 64° Northeast 474 545 41,000  Level Indianapolis Center
09:11PM 36.4681 -84.6842 64° Northeast 474 545 41,000  Level Indianapolis Center
09:12PM 36.5256 -84.5347 64° Northeast 477 549 41,000  Level Indianapolis Center
09:13PM 36.5931 -84.3592 64° Northeast 476 548 41,000  Level Indianapolis Center
09:14PM 36.6486 -84.2100 65° Northeast 474 545 41,000  Level Indianapolis Center
09:15PM 36.7061 -84.0642 64° Northeast 469 540 41,000  Level Indianapolis Center
09:16PM 36.7628 -83.9164 64° Northeast 471 542 41,000  Level Indianapolis Center
09:17PM 36.8206 -83.7681 64° Northeast 476 548 41,000  Level Indianapolis Center
09:18PM 36.8767 -83.6203 65° Northeast 470 541 41,000  Level Indianapolis Center
09:19PM 36.9331 -83.4706 65° Northeast 474 545 41,000  Level Indianapolis Center
09:20PM 36.9900 -83.3197 65° Northeast 477 549 41,000  Level Indianapolis Center
09:21PM 37.0456 -83.1689 65° Northeast 476 548 41,000  Level Indianapolis Center
09:22PM 37.1031 -83.0161 65° Northeast 476 548 41,000  Level Indianapolis Center
09:23PM 37.1592 -82.8619 65° Northeast 477 549 41,000  Level Indianapolis Center
09:24PM 37.2153 -82.7092 65° Northeast 477 549 41,000  Level Indianapolis Center
09:25PM 37.2711 -82.5572 65° Northeast 476 548 41,000  Level Indianapolis Center
09:26PM 37.3364 -82.3800 65° Northeast 477 549 41,000  Level Indianapolis Center
09:27PM 37.3908 -82.2286 66° East 475 547 41,000  Level Indianapolis Center
09:28PM 37.4458 -82.0764 65° Northeast 479 551 41,000  Level Indianapolis Center
09:29PM 37.4994 -81.9244 66° East 475 547 41,000  Level Indianapolis Center
09:30PM 37.5544 -81.7728 65° Northeast 475 547 41,000  Level Indianapolis Center
09:31PM 37.6067 -81.6197 67° East 474 545 41,000  Level Indianapolis Center
09:32PM 37.6611 -81.4694 65° Northeast 473 544 41,000  Level Indianapolis Center
09:33PM 37.7081 -81.3222 68° East 467 537 41,000  Level Indianapolis Center
09:34PM 37.7597 -81.1408 70° East 469 540 41,000  Level Indianapolis Center
09:35PM 37.8014 -80.9925 70° East 464 534 41,000  Level Indianapolis Center
09:36PM 37.8422 -80.8478 70° East 465 535 41,000  Level Indianapolis Center
09:37PM 37.8861 -80.6933 70° East 468 539 41,000 -360 Level Indianapolis Center
09:38PM 37.9381 -80.5078 70° East 468 539 40,300 -840 Descending Indianapolis Center
09:39PM 37.9808 -80.3578 70° East 471 542 39,400 -900 Descending Indianapolis Center
09:40PM 38.0231 -80.2053 71° East 471 542 38,500 -960 Descending Indianapolis Center
09:41PM 38.0647 -80.0514 71° East 472 543 37,500 -1,020 Descending Indianapolis Center
09:42PM 38.1178 -79.8728 69° East 464 534 36,400 -1,140 Descending Washington Center
09:43PM 38.1608 -79.7169 71° East 458 527 35,200 -1,200 Descending Washington Center
09:44PM 38.2014 -79.5631 71° East 458 527 34,100 -660 Descending Washington Center
09:45PM 38.2392 -79.4250 71° East 458 527 34,000 -480 Descending Washington Center
09:46PM 38.2817 -79.2686 71° East 458 527 33,200 -1,740 Descending Washington Center
09:47PM 38.3239 -79.1144 71° East 458 527 30,600 -2,460 Descending Washington Center
09:48PM 38.3639 -78.9575 72° East 458 527 28,300 -1,860 Descending Washington Center
09:49PM 38.3989 -78.8158 72° East 447 514 27,000 -660 Descending Washington Center
09:50PM 38.4361 -78.6692 72° East 435 501 27,000  Level Washington Center
09:51PM 38.4753 -78.5222 71° East 435 501 27,000  Level Washington Center
09:52PM 38.5122 -78.3750 72° East 435 501 27,000 -1,320 Level Washington Center
09:53PM 38.5533 -78.2119 72° East 440 506 24,400 -2,460 Descending Washington Center
09:54PM 38.5875 -78.0725 73° East 433 498 22,100 -2,280 Descending Washington Center
09:55PM 38.6236 -77.9356 71° East 412 474 19,900 -1,560 Descending Washington Center
09:56PM 38.6450 -77.7978 79° East 401 461 19,000 -480 Descending Washington Center
09:57PM 38.6539 -77.6547 85° East 396 456 19,000 -300 Level Washington Center
09:58PM 38.6603 -77.5192 87° East 386 444 18,400 -1,440 Descending Washington Center
09:59PM 38.6667 -77.3833 87° East 394 453 16,100 -1,500 Descending Potomac TRACON
10:00PM 38.6833 -77.2333 82° East 376 433 15,400 -1,440 Descending Potomac TRACON
10:01PM 38.6833 -77.1167 90° East 371 427 13,300 -1,800 Descending Potomac TRACON
10:02PM 38.7000 -76.9833 81° East 358 412 11,800 -1,560 Descending Potomac TRACON
10:03PM 38.7000 -76.8667 90° East 347 399 10,200 -1,440 Descending Potomac TRACON
10:04PM 38.7167 -76.7500 80° East 316 364 9,000 -1,200 Descending Potomac TRACON
10:05PM 38.7500 -76.6333 70° East 306 352 7,700 -1,380 Descending Potomac TRACON
10:06PM 38.8000 -76.5500 52° Northeast 296 341 6,200 -1,560 Descending Potomac TRACON
10:07PM 38.8667 -76.5333 11° North 260 299 4,600 -1,560 Descending Potomac TRACON
10:08PM 38.9333 -76.5500 349° North 251 289 3,100 -840 Descending Potomac TRACON
10:09PM 39.0000 -76.5833 339° North 223 257 3,000 -240 Descending Potomac TRACON
10:10PM 39.0500 -76.6000 345° North 176 203 2,700 -660 Descending Potomac TRACON
10:11PM 39.1000 -76.6000 360° North 157 181 1,700 -840 Descending Potomac TRACON
10:12PM 39.1333 -76.6333 322° Northwest 129 148 1,100 -660 Descending Potomac TRACON
10:13PM 39.1500 -76.6500 322° Northwest 133 153 400 -720 Descending Potomac TRACON
10:15PM 39.1667 -76.6667 339° North  Level FlightAware Approximate
10:22PM 39.1754 -76.6683 339° North  Level Estimated
10:23PM 39.1754 -76.6683 339° North  Level Estimated
10:24PM 39.1754 -76.6683 339° North  Level Estimated
10:25PM 39.1754 -76.6683 339° North  Level Estimated
10:26PM 39.1754 -76.6683 339° North  Level Estimated